sensor_id;sensor_type;location;lat;lon;timestamp;P1;durP1;ratioP1;P2;durP2;ratioP2
3781;SDS011;6881;49.962;7.718;2023-02-13T00:01:30;28.33;;;16.90;;
3781;SDS011;6881;49.962;7.718;2023-02-13T00:03:56;26.20;;;17.53;;
3781;SDS011;6881;49.962;7.718;2023-02-13T00:06:21;28.77;;;16.60;;
3781;SDS011;6881;49.962;7.718;2023-02-13T00:08:47;28.00;;;16.60;;
3781;SDS011;6881;49.962;7.718;2023-02-13T00:11:12;23.33;;;15.93;;
3781;SDS011;6881;49.962;7.718;2023-02-13T00:13:38;26.57;;;15.20;;
3781;SDS011;6881;49.962;7.718;2023-02-13T00:16:04;25.67;;;14.83;;
3781;SDS011;6881;49.962;7.718;2023-02-13T00:18:32;27.97;;;15.93;;
3781;SDS011;6881;49.962;7.718;2023-02-13T00:21:06;27.67;;;14.40;;
3781;SDS011;6881;49.962;7.718;2023-02-13T00:23:34;30.70;;;15.10;;
3781;SDS011;6881;49.962;7.718;2023-02-13T00:26:03;26.17;;;14.53;;
3781;SDS011;6881;49.962;7.718;2023-02-13T00:28:33;26.53;;;15.00;;
3781;SDS011;6881;49.962;7.718;2023-02-13T00:31:05;24.17;;;13.90;;
3781;SDS011;6881;49.962;7.718;2023-02-13T00:33:32;18.73;;;13.03;;
3781;SDS011;6881;49.962;7.718;2023-02-13T00:36:01;27.27;;;14.70;;
3781;SDS011;6881;49.962;7.718;2023-02-13T00:38:28;24.53;;;13.90;;
3781;SDS011;6881;49.962;7.718;2023-02-13T00:40:54;21.70;;;12.60;;
3781;SDS011;6881;49.962;7.718;2023-02-13T00:43:19;25.03;;;13.40;;
3781;SDS011;6881;49.962;7.718;2023-02-13T00:45:45;23.70;;;13.37;;
3781;SDS011;6881;49.962;7.718;2023-02-13T00:48:10;19.90;;;13.67;;
3781;SDS011;6881;49.962;7.718;2023-02-13T00:50:35;22.63;;;13.10;;
3781;SDS011;6881;49.962;7.718;2023-02-13T00:53:00;23.73;;;13.73;;
3781;SDS011;6881;49.962;7.718;2023-02-13T00:55:26;22.83;;;12.80;;
3781;SDS011;6881;49.962;7.718;2023-02-13T00:57:51;29.30;;;14.10;;
3781;SDS011;6881;49.962;7.718;2023-02-13T01:00:17;25.03;;;15.10;;
3781;SDS011;6881;49.962;7.718;2023-02-13T01:02:42;23.93;;;13.00;;
3781;SDS011;6881;49.962;7.718;2023-02-13T01:05:07;26.80;;;13.70;;
3781;SDS011;6881;49.962;7.718;2023-02-13T01:07:33;21.17;;;13.63;;
3781;SDS011;6881;49.962;7.718;2023-02-13T01:09:58;22.60;;;12.40;;
3781;SDS011;6881;49.962;7.718;2023-02-13T01:12:23;24.20;;;14.27;;
3781;SDS011;6881;49.962;7.718;2023-02-13T01:14:49;21.17;;;12.53;;
3781;SDS011;6881;49.962;7.718;2023-02-13T01:17:14;23.30;;;14.37;;
3781;SDS011;6881;49.962;7.718;2023-02-13T01:19:40;22.43;;;15.07;;
3781;SDS011;6881;49.962;7.718;2023-02-13T01:22:06;21.13;;;14.87;;
3781;SDS011;6881;49.962;7.718;2023-02-13T01:24:32;22.40;;;13.97;;
3781;SDS011;6881;49.962;7.718;2023-02-13T01:26:58;24.40;;;14.80;;
3781;SDS011;6881;49.962;7.718;2023-02-13T01:29:23;28.03;;;14.67;;
3781;SDS011;6881;49.962;7.718;2023-02-13T01:31:48;25.90;;;15.63;;
3781;SDS011;6881;49.962;7.718;2023-02-13T01:34:14;22.87;;;15.67;;
3781;SDS011;6881;49.962;7.718;2023-02-13T01:36:39;26.10;;;16.30;;
3781;SDS011;6881;49.962;7.718;2023-02-13T01:39:04;23.07;;;14.10;;
3781;SDS011;6881;49.962;7.718;2023-02-13T01:41:30;21.90;;;14.73;;
3781;SDS011;6881;49.962;7.718;2023-02-13T01:43:56;26.37;;;16.37;;
3781;SDS011;6881;49.962;7.718;2023-02-13T01:46:28;24.27;;;16.20;;
3781;SDS011;6881;49.962;7.718;2023-02-13T01:49:05;23.33;;;13.83;;
3781;SDS011;6881;49.962;7.718;2023-02-13T01:51:34;24.03;;;15.60;;
3781;SDS011;6881;49.962;7.718;2023-02-13T01:54:05;24.90;;;15.43;;
3781;SDS011;6881;49.962;7.718;2023-02-13T01:56:33;25.90;;;15.23;;
3781;SDS011;6881;49.962;7.718;2023-02-13T01:59:04;24.37;;;14.93;;
3781;SDS011;6881;49.962;7.718;2023-02-13T02:01:33;25.73;;;16.40;;
3781;SDS011;6881;49.962;7.718;2023-02-13T02:04:09;26.80;;;16.97;;
3781;SDS011;6881;49.962;7.718;2023-02-13T02:06:38;25.63;;;17.53;;
3781;SDS011;6881;49.962;7.718;2023-02-13T02:09:17;29.80;;;16.63;;
3781;SDS011;6881;49.962;7.718;2023-02-13T02:11:52;24.67;;;16.00;;
3781;SDS011;6881;49.962;7.718;2023-02-13T02:14:24;27.20;;;16.97;;
3781;SDS011;6881;49.962;7.718;2023-02-13T02:16:50;23.40;;;14.10;;
3781;SDS011;6881;49.962;7.718;2023-02-13T02:19:18;22.30;;;14.60;;
3781;SDS011;6881;49.962;7.718;2023-02-13T02:22:33;27.60;;;16.57;;
3781;SDS011;6881;49.962;7.718;2023-02-13T02:31:24;28.83;;;17.40;;
3781;SDS011;6881;49.962;7.718;2023-02-13T02:34:32;24.97;;;16.47;;
3781;SDS011;6881;49.962;7.718;2023-02-13T02:37:15;22.03;;;16.07;;
3781;SDS011;6881;49.962;7.718;2023-02-13T02:47:51;25.00;;;13.97;;
3781;SDS011;6881;49.962;7.718;2023-02-13T03:01:20;25.77;;;14.30;;
3781;SDS011;6881;49.962;7.718;2023-02-13T03:04:09;26.40;;;14.40;;
3781;SDS011;6881;49.962;7.718;2023-02-13T03:07:18;31.67;;;16.23;;
3781;SDS011;6881;49.962;7.718;2023-02-13T03:09:47;25.03;;;15.47;;
3781;SDS011;6881;49.962;7.718;2023-02-13T03:12:41;25.20;;;15.20;;
3781;SDS011;6881;49.962;7.718;2023-02-13T03:15:28;26.53;;;16.00;;
3781;SDS011;6881;49.962;7.718;2023-02-13T03:17:54;27.47;;;15.10;;
3781;SDS011;6881;49.962;7.718;2023-02-13T03:29:14;29.03;;;15.80;;
3781;SDS011;6881;49.962;7.718;2023-02-13T03:34:34;35.93;;;17.73;;
3781;SDS011;6881;49.962;7.718;2023-02-13T03:37:25;23.00;;;13.77;;
3781;SDS011;6881;49.962;7.718;2023-02-13T03:40:20;24.63;;;14.30;;
3781;SDS011;6881;49.962;7.718;2023-02-13T03:45:29;33.43;;;17.73;;
3781;SDS011;6881;49.962;7.718;2023-02-13T03:48:19;35.60;;;16.90;;
3781;SDS011;6881;49.962;7.718;2023-02-13T03:51:05;30.07;;;14.50;;
3781;SDS011;6881;49.962;7.718;2023-02-13T03:53:32;34.57;;;17.07;;
3781;SDS011;6881;49.962;7.718;2023-02-13T03:55:58;27.57;;;16.00;;
3781;SDS011;6881;49.962;7.718;2023-02-13T03:58:45;31.43;;;17.47;;
3781;SDS011;6881;49.962;7.718;2023-02-13T04:01:33;26.17;;;14.67;;
3781;SDS011;6881;49.962;7.718;2023-02-13T04:04:09;24.27;;;15.10;;
3781;SDS011;6881;49.962;7.718;2023-02-13T04:09:16;27.47;;;15.30;;
3781;SDS011;6881;49.962;7.718;2023-02-13T04:11:47;26.70;;;14.77;;
3781;SDS011;6881;49.962;7.718;2023-02-13T04:14:22;24.03;;;15.70;;
3781;SDS011;6881;49.962;7.718;2023-02-13T04:16:51;24.13;;;15.23;;
3781;SDS011;6881;49.962;7.718;2023-02-13T04:19:20;29.97;;;17.20;;
3781;SDS011;6881;49.962;7.718;2023-02-13T04:21:48;27.13;;;15.80;;
3781;SDS011;6881;49.962;7.718;2023-02-13T04:24:14;26.97;;;15.47;;
3781;SDS011;6881;49.962;7.718;2023-02-13T04:26:40;28.17;;;17.57;;
3781;SDS011;6881;49.962;7.718;2023-02-13T04:29:07;25.20;;;14.57;;
3781;SDS011;6881;49.962;7.718;2023-02-13T04:31:32;26.60;;;14.47;;
3781;SDS011;6881;49.962;7.718;2023-02-13T04:33:58;22.70;;;13.83;;
3781;SDS011;6881;49.962;7.718;2023-02-13T04:36:23;28.37;;;15.23;;
3781;SDS011;6881;49.962;7.718;2023-02-13T04:38:49;30.37;;;16.67;;
3781;SDS011;6881;49.962;7.718;2023-02-13T04:41:14;30.93;;;16.40;;
3781;SDS011;6881;49.962;7.718;2023-02-13T04:43:40;29.87;;;17.00;;
3781;SDS011;6881;49.962;7.718;2023-02-13T04:46:06;31.40;;;17.30;;
3781;SDS011;6881;49.962;7.718;2023-02-13T04:48:31;28.73;;;18.07;;
3781;SDS011;6881;49.962;7.718;2023-02-13T04:50:56;32.57;;;18.77;;
3781;SDS011;6881;49.962;7.718;2023-02-13T04:53:22;28.50;;;18.30;;
3781;SDS011;6881;49.962;7.718;2023-02-13T04:55:47;29.07;;;16.40;;
3781;SDS011;6881;49.962;7.718;2023-02-13T04:58:12;33.03;;;17.40;;
3781;SDS011;6881;49.962;7.718;2023-02-13T05:00:38;30.50;;;17.17;;
3781;SDS011;6881;49.962;7.718;2023-02-13T05:03:04;34.77;;;18.60;;
3781;SDS011;6881;49.962;7.718;2023-02-13T05:05:33;33.00;;;17.00;;
3781;SDS011;6881;49.962;7.718;2023-02-13T05:07:59;31.63;;;17.27;;
3781;SDS011;6881;49.962;7.718;2023-02-13T05:10:25;33.90;;;20.17;;
3781;SDS011;6881;49.962;7.718;2023-02-13T05:12:50;34.70;;;19.17;;
3781;SDS011;6881;49.962;7.718;2023-02-13T05:15:15;29.80;;;17.77;;
3781;SDS011;6881;49.962;7.718;2023-02-13T05:17:44;33.53;;;19.00;;
3781;SDS011;6881;49.962;7.718;2023-02-13T05:20:10;39.10;;;18.47;;
3781;SDS011;6881;49.962;7.718;2023-02-13T05:22:36;33.87;;;17.87;;
3781;SDS011;6881;49.962;7.718;2023-02-13T05:25:20;32.83;;;18.30;;
3781;SDS011;6881;49.962;7.718;2023-02-13T05:27:45;34.43;;;17.30;;
3781;SDS011;6881;49.962;7.718;2023-02-13T05:30:11;39.83;;;18.53;;
3781;SDS011;6881;49.962;7.718;2023-02-13T05:32:37;31.47;;;19.37;;
3781;SDS011;6881;49.962;7.718;2023-02-13T05:35:03;37.93;;;19.30;;
3781;SDS011;6881;49.962;7.718;2023-02-13T05:37:29;31.07;;;17.43;;
3781;SDS011;6881;49.962;7.718;2023-02-13T05:39:54;35.83;;;19.40;;
3781;SDS011;6881;49.962;7.718;2023-02-13T05:42:20;37.70;;;19.13;;
3781;SDS011;6881;49.962;7.718;2023-02-13T05:44:45;34.20;;;18.70;;
3781;SDS011;6881;49.962;7.718;2023-02-13T05:47:10;32.43;;;17.20;;
3781;SDS011;6881;49.962;7.718;2023-02-13T05:49:36;41.70;;;17.73;;
3781;SDS011;6881;49.962;7.718;2023-02-13T05:52:01;39.63;;;18.90;;
3781;SDS011;6881;49.962;7.718;2023-02-13T05:54:27;36.97;;;18.70;;
3781;SDS011;6881;49.962;7.718;2023-02-13T05:56:52;39.17;;;18.70;;
3781;SDS011;6881;49.962;7.718;2023-02-13T05:59:17;31.77;;;17.80;;
3781;SDS011;6881;49.962;7.718;2023-02-13T06:01:43;35.80;;;18.73;;
3781;SDS011;6881;49.962;7.718;2023-02-13T06:04:08;36.03;;;20.60;;
3781;SDS011;6881;49.962;7.718;2023-02-13T06:06:33;35.90;;;18.00;;
3781;SDS011;6881;49.962;7.718;2023-02-13T06:08:59;36.70;;;17.00;;
3781;SDS011;6881;49.962;7.718;2023-02-13T06:11:24;39.27;;;19.50;;
3781;SDS011;6881;49.962;7.718;2023-02-13T06:13:49;36.27;;;19.10;;
3781;SDS011;6881;49.962;7.718;2023-02-13T06:16:15;33.80;;;18.97;;
3781;SDS011;6881;49.962;7.718;2023-02-13T06:18:40;36.83;;;19.23;;
3781;SDS011;6881;49.962;7.718;2023-02-13T06:21:06;37.43;;;19.47;;
3781;SDS011;6881;49.962;7.718;2023-02-13T06:23:31;39.27;;;19.50;;
3781;SDS011;6881;49.962;7.718;2023-02-13T06:26:03;45.50;;;20.47;;
3781;SDS011;6881;49.962;7.718;2023-02-13T06:28:30;42.13;;;19.50;;
3781;SDS011;6881;49.962;7.718;2023-02-13T06:30:55;36.87;;;20.17;;
3781;SDS011;6881;49.962;7.718;2023-02-13T06:33:21;40.33;;;21.13;;
3781;SDS011;6881;49.962;7.718;2023-02-13T06:35:46;35.00;;;19.23;;
3781;SDS011;6881;49.962;7.718;2023-02-13T06:38:11;34.60;;;18.67;;
3781;SDS011;6881;49.962;7.718;2023-02-13T06:40:37;38.20;;;19.93;;
3781;SDS011;6881;49.962;7.718;2023-02-13T06:43:02;38.17;;;18.83;;
3781;SDS011;6881;49.962;7.718;2023-02-13T06:45:27;35.47;;;19.47;;
3781;SDS011;6881;49.962;7.718;2023-02-13T06:47:53;38.13;;;19.10;;
3781;SDS011;6881;49.962;7.718;2023-02-13T06:50:18;35.97;;;20.77;;
3781;SDS011;6881;49.962;7.718;2023-02-13T06:52:45;33.67;;;18.00;;
3781;SDS011;6881;49.962;7.718;2023-02-13T06:55:11;39.77;;;17.37;;
3781;SDS011;6881;49.962;7.718;2023-02-13T06:57:37;37.03;;;21.83;;
3781;SDS011;6881;49.962;7.718;2023-02-13T07:00:02;39.33;;;21.17;;
3781;SDS011;6881;49.962;7.718;2023-02-13T07:02:30;41.20;;;19.13;;
3781;SDS011;6881;49.962;7.718;2023-02-13T07:04:56;42.27;;;21.20;;
3781;SDS011;6881;49.962;7.718;2023-02-13T07:07:21;37.20;;;22.70;;
3781;SDS011;6881;49.962;7.718;2023-02-13T07:09:47;41.47;;;20.80;;
3781;SDS011;6881;49.962;7.718;2023-02-13T07:12:12;40.33;;;20.50;;
3781;SDS011;6881;49.962;7.718;2023-02-13T07:14:37;39.40;;;21.17;;
3781;SDS011;6881;49.962;7.718;2023-02-13T07:17:02;34.83;;;19.90;;
3781;SDS011;6881;49.962;7.718;2023-02-13T07:19:28;46.97;;;20.90;;
3781;SDS011;6881;49.962;7.718;2023-02-13T07:21:53;29.03;;;18.07;;
3781;SDS011;6881;49.962;7.718;2023-02-13T07:24:18;39.87;;;19.70;;
3781;SDS011;6881;49.962;7.718;2023-02-13T07:26:44;39.33;;;20.90;;
3781;SDS011;6881;49.962;7.718;2023-02-13T07:29:09;37.97;;;21.10;;
3781;SDS011;6881;49.962;7.718;2023-02-13T07:31:34;40.83;;;21.37;;
3781;SDS011;6881;49.962;7.718;2023-02-13T07:34:00;38.23;;;20.00;;
3781;SDS011;6881;49.962;7.718;2023-02-13T07:36:26;31.40;;;19.60;;
3781;SDS011;6881;49.962;7.718;2023-02-13T07:38:52;47.53;;;21.10;;
3781;SDS011;6881;49.962;7.718;2023-02-13T07:41:17;34.03;;;18.33;;
3781;SDS011;6881;49.962;7.718;2023-02-13T07:43:42;36.50;;;19.00;;
3781;SDS011;6881;49.962;7.718;2023-02-13T07:46:08;39.17;;;19.97;;
3781;SDS011;6881;49.962;7.718;2023-02-13T07:48:34;41.60;;;20.40;;
3781;SDS011;6881;49.962;7.718;2023-02-13T07:50:59;41.70;;;19.57;;
3781;SDS011;6881;49.962;7.718;2023-02-13T07:53:28;33.13;;;20.10;;
3781;SDS011;6881;49.962;7.718;2023-02-13T07:55:54;34.03;;;19.57;;
3781;SDS011;6881;49.962;7.718;2023-02-13T07:58:19;37.67;;;19.80;;
3781;SDS011;6881;49.962;7.718;2023-02-13T08:00:45;41.57;;;19.60;;
3781;SDS011;6881;49.962;7.718;2023-02-13T08:03:10;35.83;;;21.03;;
3781;SDS011;6881;49.962;7.718;2023-02-13T08:05:36;36.70;;;20.10;;
3781;SDS011;6881;49.962;7.718;2023-02-13T08:08:01;40.27;;;21.47;;
3781;SDS011;6881;49.962;7.718;2023-02-13T08:10:27;35.47;;;20.80;;
3781;SDS011;6881;49.962;7.718;2023-02-13T08:13:11;33.33;;;18.70;;
3781;SDS011;6881;49.962;7.718;2023-02-13T08:15:37;33.67;;;19.03;;
3781;SDS011;6881;49.962;7.718;2023-02-13T08:18:03;30.00;;;17.30;;
3781;SDS011;6881;49.962;7.718;2023-02-13T08:20:28;29.80;;;17.33;;
3781;SDS011;6881;49.962;7.718;2023-02-13T08:22:53;35.53;;;18.97;;
3781;SDS011;6881;49.962;7.718;2023-02-13T08:25:27;33.07;;;20.27;;
3781;SDS011;6881;49.962;7.718;2023-02-13T08:27:52;33.73;;;20.20;;
3781;SDS011;6881;49.962;7.718;2023-02-13T08:30:17;30.73;;;18.00;;
3781;SDS011;6881;49.962;7.718;2023-02-13T08:32:42;37.20;;;19.77;;
3781;SDS011;6881;49.962;7.718;2023-02-13T08:35:08;33.47;;;16.97;;
3781;SDS011;6881;49.962;7.718;2023-02-13T08:37:33;38.83;;;15.63;;
3781;SDS011;6881;49.962;7.718;2023-02-13T08:39:58;30.20;;;16.67;;
3781;SDS011;6881;49.962;7.718;2023-02-13T08:42:24;31.23;;;16.67;;
3781;SDS011;6881;49.962;7.718;2023-02-13T08:44:49;32.47;;;17.50;;
3781;SDS011;6881;49.962;7.718;2023-02-13T08:47:14;32.40;;;18.40;;
3781;SDS011;6881;49.962;7.718;2023-02-13T08:49:40;28.07;;;15.93;;
3781;SDS011;6881;49.962;7.718;2023-02-13T08:52:05;39.37;;;19.17;;
3781;SDS011;6881;49.962;7.718;2023-02-13T08:54:32;34.77;;;18.80;;
3781;SDS011;6881;49.962;7.718;2023-02-13T08:56:58;34.33;;;18.60;;
3781;SDS011;6881;49.962;7.718;2023-02-13T08:59:24;32.37;;;18.13;;
3781;SDS011;6881;49.962;7.718;2023-02-13T09:01:49;29.00;;;16.50;;
3781;SDS011;6881;49.962;7.718;2023-02-13T09:04:14;32.70;;;16.90;;
3781;SDS011;6881;49.962;7.718;2023-02-13T09:06:42;32.23;;;16.93;;
3781;SDS011;6881;49.962;7.718;2023-02-13T09:09:07;29.93;;;17.60;;
3781;SDS011;6881;49.962;7.718;2023-02-13T09:11:33;29.30;;;17.00;;
3781;SDS011;6881;49.962;7.718;2023-02-13T09:13:58;30.13;;;16.33;;
3781;SDS011;6881;49.962;7.718;2023-02-13T09:16:23;24.93;;;15.27;;
3781;SDS011;6881;49.962;7.718;2023-02-13T09:18:49;20.93;;;15.40;;
3781;SDS011;6881;49.962;7.718;2023-02-13T09:21:15;28.33;;;16.13;;
3781;SDS011;6881;49.962;7.718;2023-02-13T09:23:41;27.80;;;16.43;;
3781;SDS011;6881;49.962;7.718;2023-02-13T09:26:07;21.30;;;14.83;;
3781;SDS011;6881;49.962;7.718;2023-02-13T09:28:35;24.23;;;15.43;;
3781;SDS011;6881;49.962;7.718;2023-02-13T09:31:07;30.83;;;16.60;;
3781;SDS011;6881;49.962;7.718;2023-02-13T09:33:36;28.60;;;16.37;;
3781;SDS011;6881;49.962;7.718;2023-02-13T09:36:03;22.00;;;14.30;;
3781;SDS011;6881;49.962;7.718;2023-02-13T09:38:32;24.67;;;14.77;;
3781;SDS011;6881;49.962;7.718;2023-02-13T09:41:04;26.67;;;14.63;;
3781;SDS011;6881;49.962;7.718;2023-02-13T09:43:52;25.03;;;14.83;;
3781;SDS011;6881;49.962;7.718;2023-02-13T09:46:19;21.57;;;14.13;;
3781;SDS011;6881;49.962;7.718;2023-02-13T09:48:48;21.50;;;15.90;;
3781;SDS011;6881;49.962;7.718;2023-02-13T09:51:17;21.80;;;13.60;;
3781;SDS011;6881;49.962;7.718;2023-02-13T09:53:52;16.20;;;11.33;;
3781;SDS011;6881;49.962;7.718;2023-02-13T09:56:24;15.00;;;12.20;;
3781;SDS011;6881;49.962;7.718;2023-02-13T09:58:57;18.60;;;12.37;;
3781;SDS011;6881;49.962;7.718;2023-02-13T10:01:44;16.20;;;12.47;;
3781;SDS011;6881;49.962;7.718;2023-02-13T10:07:44;20.93;;;14.47;;
3781;SDS011;6881;49.962;7.718;2023-02-13T10:10:13;14.70;;;11.00;;
3781;SDS011;6881;49.962;7.718;2023-02-13T10:18:16;20.00;;;13.10;;
3781;SDS011;6881;49.962;7.718;2023-02-13T10:20:51;17.37;;;12.10;;
3781;SDS011;6881;49.962;7.718;2023-02-13T10:23:25;16.13;;;12.07;;
3781;SDS011;6881;49.962;7.718;2023-02-13T10:26:10;22.23;;;12.60;;
3781;SDS011;6881;49.962;7.718;2023-02-13T10:28:57;16.90;;;11.37;;
3781;SDS011;6881;49.962;7.718;2023-02-13T10:31:46;18.03;;;11.77;;
3781;SDS011;6881;49.962;7.718;2023-02-13T10:34:16;16.17;;;10.90;;
3781;SDS011;6881;49.962;7.718;2023-02-13T10:36:45;13.67;;;11.40;;
3781;SDS011;6881;49.962;7.718;2023-02-13T10:41:50;15.70;;;11.40;;
3781;SDS011;6881;49.962;7.718;2023-02-13T10:52:43;16.10;;;12.37;;
3781;SDS011;6881;49.962;7.718;2023-02-13T11:01:05;14.00;;;11.33;;
3781;SDS011;6881;49.962;7.718;2023-02-13T11:03:29;14.20;;;11.80;;
3781;SDS011;6881;49.962;7.718;2023-02-13T11:05:54;16.17;;;12.50;;
3781;SDS011;6881;49.962;7.718;2023-02-13T11:08:23;12.30;;;10.10;;
3781;SDS011;6881;49.962;7.718;2023-02-13T11:10:58;11.07;;;9.90;;
3781;SDS011;6881;49.962;7.718;2023-02-13T11:13:25;11.90;;;9.43;;
3781;SDS011;6881;49.962;7.718;2023-02-13T11:16:04;11.73;;;9.07;;
3781;SDS011;6881;49.962;7.718;2023-02-13T11:18:38;9.80;;;8.07;;
3781;SDS011;6881;49.962;7.718;2023-02-13T11:26:06;11.20;;;9.20;;
3781;SDS011;6881;49.962;7.718;2023-02-13T11:31:29;12.80;;;9.53;;
3781;SDS011;6881;49.962;7.718;2023-02-13T11:33:56;12.00;;;9.63;;
3781;SDS011;6881;49.962;7.718;2023-02-13T11:36:24;10.80;;;8.73;;
3781;SDS011;6881;49.962;7.718;2023-02-13T11:41:27;10.77;;;8.80;;
3781;SDS011;6881;49.962;7.718;2023-02-13T11:43:57;11.70;;;8.60;;
3781;SDS011;6881;49.962;7.718;2023-02-13T11:46:29;8.80;;;7.23;;
3781;SDS011;6881;49.962;7.718;2023-02-13T11:49:05;10.40;;;8.60;;
3781;SDS011;6881;49.962;7.718;2023-02-13T11:51:38;10.20;;;7.10;;
3781;SDS011;6881;49.962;7.718;2023-02-13T11:54:04;12.00;;;9.60;;
3781;SDS011;6881;49.962;7.718;2023-02-13T11:56:45;11.40;;;8.67;;
3781;SDS011;6881;49.962;7.718;2023-02-13T11:59:13;9.43;;;8.00;;
3781;SDS011;6881;49.962;7.718;2023-02-13T12:01:38;10.00;;;8.30;;
3781;SDS011;6881;49.962;7.718;2023-02-13T12:06:29;9.30;;;8.30;;
3781;SDS011;6881;49.962;7.718;2023-02-13T12:08:55;10.43;;;8.00;;
3781;SDS011;6881;49.962;7.718;2023-02-13T12:11:22;8.10;;;6.90;;
3781;SDS011;6881;49.962;7.718;2023-02-13T12:13:52;14.53;;;8.40;;
3781;SDS011;6881;49.962;7.718;2023-02-13T12:16:37;9.50;;;8.50;;
3781;SDS011;6881;49.962;7.718;2023-02-13T12:19:16;10.17;;;7.80;;
3781;SDS011;6881;49.962;7.718;2023-02-13T12:43:41;10.70;;;8.47;;
3781;SDS011;6881;49.962;7.718;2023-02-13T12:46:59;9.83;;;7.13;;
3781;SDS011;6881;49.962;7.718;2023-02-13T13:17:52;12.40;;;10.00;;
3781;SDS011;6881;49.962;7.718;2023-02-13T13:28:56;12.50;;;10.50;;
3781;SDS011;6881;49.962;7.718;2023-02-13T13:31:22;13.93;;;11.27;;
3781;SDS011;6881;49.962;7.718;2023-02-13T13:33:50;13.70;;;11.60;;
3781;SDS011;6881;49.962;7.718;2023-02-13T13:39:55;14.37;;;10.80;;
3781;SDS011;6881;49.962;7.718;2023-02-13T13:42:41;15.90;;;11.70;;
3781;SDS011;6881;49.962;7.718;2023-02-13T13:50:55;14.73;;;11.57;;
3781;SDS011;6881;49.962;7.718;2023-02-13T13:53:21;15.50;;;11.17;;
3781;SDS011;6881;49.962;7.718;2023-02-13T14:03:44;14.93;;;11.17;;
3781;SDS011;6881;49.962;7.718;2023-02-13T14:06:15;17.47;;;13.87;;
3781;SDS011;6881;49.962;7.718;2023-02-13T14:11:29;21.10;;;13.20;;
3781;SDS011;6881;49.962;7.718;2023-02-13T14:13:55;17.07;;;13.80;;
3781;SDS011;6881;49.962;7.718;2023-02-13T14:16:37;18.47;;;13.03;;
3781;SDS011;6881;49.962;7.718;2023-02-13T14:25:04;16.03;;;11.93;;
3781;SDS011;6881;49.962;7.718;2023-02-13T14:27:32;18.37;;;12.50;;
3781;SDS011;6881;49.962;7.718;2023-02-13T14:29:59;17.93;;;11.77;;
3781;SDS011;6881;49.962;7.718;2023-02-13T14:32:30;14.77;;;9.97;;
3781;SDS011;6881;49.962;7.718;2023-02-13T14:34:58;15.90;;;12.40;;
3781;SDS011;6881;49.962;7.718;2023-02-13T14:37:32;15.60;;;12.10;;
3781;SDS011;6881;49.962;7.718;2023-02-13T14:40:27;16.30;;;11.77;;
3781;SDS011;6881;49.962;7.718;2023-02-13T14:43:00;15.30;;;12.50;;
3781;SDS011;6881;49.962;7.718;2023-02-13T14:45:46;14.47;;;11.00;;
3781;SDS011;6881;49.962;7.718;2023-02-13T14:48:14;16.63;;;11.67;;
3781;SDS011;6881;49.962;7.718;2023-02-13T14:50:48;14.53;;;10.63;;
3781;SDS011;6881;49.962;7.718;2023-02-13T14:53:19;16.57;;;9.83;;
3781;SDS011;6881;49.962;7.718;2023-02-13T14:55:52;17.87;;;11.33;;
3781;SDS011;6881;49.962;7.718;2023-02-13T14:58:22;18.07;;;12.23;;
3781;SDS011;6881;49.962;7.718;2023-02-13T15:03:29;14.90;;;9.83;;
3781;SDS011;6881;49.962;7.718;2023-02-13T15:06:02;14.77;;;10.03;;
3781;SDS011;6881;49.962;7.718;2023-02-13T15:08:37;16.80;;;10.83;;
3781;SDS011;6881;49.962;7.718;2023-02-13T15:11:07;18.43;;;10.30;;
3781;SDS011;6881;49.962;7.718;2023-02-13T15:13:52;14.43;;;10.90;;
3781;SDS011;6881;49.962;7.718;2023-02-13T15:16:17;13.97;;;11.03;;
3781;SDS011;6881;49.962;7.718;2023-02-13T15:18:50;14.07;;;9.73;;
3781;SDS011;6881;49.962;7.718;2023-02-13T15:21:20;15.80;;;9.70;;
3781;SDS011;6881;49.962;7.718;2023-02-13T15:23:53;18.37;;;10.27;;
3781;SDS011;6881;49.962;7.718;2023-02-13T15:26:22;15.67;;;11.10;;
3781;SDS011;6881;49.962;7.718;2023-02-13T15:28:57;13.60;;;9.67;;
3781;SDS011;6881;49.962;7.718;2023-02-13T15:31:37;14.63;;;10.60;;
3781;SDS011;6881;49.962;7.718;2023-02-13T15:34:02;12.67;;;9.20;;
3781;SDS011;6881;49.962;7.718;2023-02-13T15:36:38;15.03;;;9.83;;
3781;SDS011;6881;49.962;7.718;2023-02-13T15:39:05;13.93;;;10.50;;
3781;SDS011;6881;49.962;7.718;2023-02-13T15:41:36;15.77;;;9.97;;
3781;SDS011;6881;49.962;7.718;2023-02-13T15:44:03;12.80;;;10.00;;
3781;SDS011;6881;49.962;7.718;2023-02-13T15:46:32;16.40;;;10.87;;
3781;SDS011;6881;49.962;7.718;2023-02-13T15:49:10;16.43;;;10.17;;
3781;SDS011;6881;49.962;7.718;2023-02-13T15:51:38;13.77;;;10.03;;
3781;SDS011;6881;49.962;7.718;2023-02-13T15:54:20;14.87;;;9.80;;
3781;SDS011;6881;49.962;7.718;2023-02-13T15:56:53;15.97;;;10.90;;
3781;SDS011;6881;49.962;7.718;2023-02-13T15:59:20;14.90;;;11.03;;
3781;SDS011;6881;49.962;7.718;2023-02-13T16:01:46;19.20;;;12.47;;
3781;SDS011;6881;49.962;7.718;2023-02-13T16:04:12;17.40;;;11.97;;
3781;SDS011;6881;49.962;7.718;2023-02-13T16:06:40;21.40;;;14.33;;
3781;SDS011;6881;49.962;7.718;2023-02-13T16:09:19;15.67;;;12.60;;
3781;SDS011;6881;49.962;7.718;2023-02-13T16:11:47;17.10;;;13.80;;
3781;SDS011;6881;49.962;7.718;2023-02-13T16:14:16;22.17;;;14.60;;
3781;SDS011;6881;49.962;7.718;2023-02-13T16:16:55;30.20;;;17.97;;
3781;SDS011;6881;49.962;7.718;2023-02-13T16:21:50;26.20;;;19.50;;
3781;SDS011;6881;49.962;7.718;2023-02-13T16:24:16;25.30;;;17.37;;
3781;SDS011;6881;49.962;7.718;2023-02-13T16:26:42;19.57;;;14.20;;
3781;SDS011;6881;49.962;7.718;2023-02-13T16:29:09;19.60;;;12.80;;
3781;SDS011;6881;49.962;7.718;2023-02-13T16:31:35;33.77;;;17.17;;
3781;SDS011;6881;49.962;7.718;2023-02-13T16:34:11;30.27;;;19.70;;
3781;SDS011;6881;49.962;7.718;2023-02-13T16:36:50;40.27;;;19.87;;
3781;SDS011;6881;49.962;7.718;2023-02-13T16:39:26;40.17;;;19.17;;
3781;SDS011;6881;49.962;7.718;2023-02-13T16:41:56;34.67;;;16.83;;
3781;SDS011;6881;49.962;7.718;2023-02-13T16:44:23;38.17;;;17.03;;
3781;SDS011;6881;49.962;7.718;2023-02-13T16:46:54;29.30;;;14.97;;
3781;SDS011;6881;49.962;7.718;2023-02-13T16:49:22;28.40;;;16.47;;
3781;SDS011;6881;49.962;7.718;2023-02-13T16:51:50;27.43;;;18.00;;
3781;SDS011;6881;49.962;7.718;2023-02-13T16:54:20;40.97;;;21.70;;
3781;SDS011;6881;49.962;7.718;2023-02-13T17:02:11;23.27;;;14.70;;
3781;SDS011;6881;49.962;7.718;2023-02-13T17:04:36;22.87;;;13.50;;
3781;SDS011;6881;49.962;7.718;2023-02-13T17:07:03;23.97;;;12.00;;
3781;SDS011;6881;49.962;7.718;2023-02-13T17:09:29;38.57;;;22.17;;
3781;SDS011;6881;49.962;7.718;2023-02-13T17:11:55;38.97;;;21.83;;
3781;SDS011;6881;49.962;7.718;2023-02-13T17:14:20;33.80;;;19.73;;
3781;SDS011;6881;49.962;7.718;2023-02-13T17:16:46;30.10;;;20.70;;
3781;SDS011;6881;49.962;7.718;2023-02-13T17:19:12;30.10;;;20.63;;
3781;SDS011;6881;49.962;7.718;2023-02-13T17:21:37;35.27;;;21.17;;
3781;SDS011;6881;49.962;7.718;2023-02-13T17:24:03;39.03;;;22.13;;
3781;SDS011;6881;49.962;7.718;2023-02-13T17:26:29;32.93;;;21.50;;
3781;SDS011;6881;49.962;7.718;2023-02-13T17:28:55;29.80;;;20.00;;
3781;SDS011;6881;49.962;7.718;2023-02-13T17:31:20;28.60;;;18.90;;
3781;SDS011;6881;49.962;7.718;2023-02-13T17:33:45;23.17;;;15.77;;
3781;SDS011;6881;49.962;7.718;2023-02-13T17:36:11;22.73;;;14.60;;
3781;SDS011;6881;49.962;7.718;2023-02-13T17:38:37;18.27;;;13.43;;
3781;SDS011;6881;49.962;7.718;2023-02-13T17:41:03;18.73;;;13.13;;
3781;SDS011;6881;49.962;7.718;2023-02-13T17:43:29;21.70;;;13.57;;
3781;SDS011;6881;49.962;7.718;2023-02-13T17:45:54;17.33;;;12.87;;
3781;SDS011;6881;49.962;7.718;2023-02-13T17:48:20;23.83;;;14.70;;
3781;SDS011;6881;49.962;7.718;2023-02-13T17:50:45;28.70;;;14.23;;
3781;SDS011;6881;49.962;7.718;2023-02-13T17:53:22;22.73;;;14.90;;
3781;SDS011;6881;49.962;7.718;2023-02-13T17:55:48;22.97;;;14.70;;
3781;SDS011;6881;49.962;7.718;2023-02-13T17:58:14;29.90;;;17.87;;
3781;SDS011;6881;49.962;7.718;2023-02-13T18:00:39;36.03;;;22.73;;